createdAt,value
2023-02-05T00:00:56.597Z,-1.68
2023-02-05T00:03:25.729Z,-1.68
2023-02-05T00:05:56.158Z,-1.84
2023-02-05T00:08:27.435Z,-1.84
2023-02-05T00:10:56.528Z,-1.85
2023-02-05T00:13:25.602Z,-1.74
2023-02-05T00:15:54.697Z,-1.71
2023-02-05T00:18:23.749Z,-1.80
2023-02-05T00:20:52.794Z,-1.79
2023-02-05T00:23:23.197Z,-1.72
2023-02-05T00:25:52.225Z,-1.71
2023-02-05T00:28:21.299Z,-1.74
2023-02-05T00:30:50.549Z,-1.82
2023-02-05T00:33:19.703Z,-1.85
2023-02-05T00:35:48.848Z,-1.71
2023-02-05T00:38:17.971Z,-1.82
2023-02-05T00:40:48.351Z,-1.77
2023-02-05T00:43:17.459Z,-1.83
2023-02-05T00:45:46.668Z,-1.80
2023-02-05T00:48:15.785Z,-1.74
2023-02-05T00:50:44.967Z,-1.81
2023-02-05T00:53:14.043Z,-1.69
2023-02-05T00:55:43.129Z,-1.74
2023-02-05T00:58:13.904Z,-1.73
2023-02-05T01:00:43.019Z,-1.69
2023-02-05T01:03:12.689Z,-1.73
2023-02-05T01:05:41.855Z,-1.72
2023-02-05T01:08:13.008Z,-1.79
2023-02-05T01:10:47.148Z,-1.82
2023-02-05T01:13:18.875Z,-1.83
2023-02-05T01:15:48.143Z,-1.80
2023-02-05T01:18:17.489Z,-1.81
2023-02-05T01:20:46.581Z,-1.86
2023-02-05T01:23:15.629Z,-1.80
2023-02-05T01:25:44.882Z,-1.86
2023-02-05T01:28:14.199Z,-1.90
2023-02-05T01:30:49.643Z,-1.81
2023-02-05T01:33:19.414Z,-1.73
2023-02-05T01:35:49.467Z,-1.92
2023-02-05T01:38:18.503Z,-1.83
2023-02-05T01:40:47.539Z,-1.80
2023-02-05T01:43:18.289Z,-1.80
2023-02-05T01:46:18.527Z,-1.79
2023-02-05T01:48:52.623Z,-1.82
2023-02-05T01:51:22.658Z,-1.87
2023-02-05T01:53:52.758Z,-1.85
2023-02-05T01:56:27.080Z,-1.83
2023-02-05T01:59:01.559Z,-1.82
2023-02-05T02:01:33.126Z,-1.84
2023-02-05T02:04:05.894Z,-1.87
2023-02-05T02:06:36.312Z,-1.83
2023-02-05T02:09:07.689Z,-1.79
2023-02-05T02:11:40.043Z,-1.82
2023-02-05T02:14:12.107Z,-1.85
2023-02-05T02:16:42.624Z,-1.78
2023-02-05T02:19:19.934Z,-1.74
2023-02-05T02:22:33.054Z,-1.69
2023-02-05T02:25:34.590Z,-1.71
2023-02-05T02:28:11.318Z,-1.61
2023-02-05T02:30:44.945Z,-1.68
2023-02-05T02:33:19.754Z,-1.66
2023-02-05T02:35:54.640Z,-1.64
2023-02-05T02:38:31.188Z,-1.62
2023-02-05T02:41:06.589Z,-1.60
2023-02-05T02:43:46.139Z,-1.61
2023-02-05T02:46:22.017Z,-1.55
2023-02-05T02:48:58.212Z,-1.52
2023-02-05T02:51:30.084Z,-1.48
2023-02-05T02:54:01.586Z,-1.42
2023-02-05T02:56:34.327Z,-1.47
2023-02-05T02:59:08.980Z,-1.47
2023-02-05T03:01:46.915Z,-1.45
2023-02-05T03:04:24.488Z,-1.40
2023-02-05T03:06:56.768Z,-1.36
2023-02-05T03:09:32.472Z,-1.38
2023-02-05T03:12:01.760Z,-1.35
2023-02-05T03:14:32.907Z,-1.32
2023-02-05T03:17:03.725Z,-1.34
2023-02-05T03:19:34.184Z,-1.33
2023-02-05T03:22:05.593Z,-1.33
2023-02-05T03:24:34.929Z,-1.36
2023-02-05T03:27:05.041Z,-1.35
2023-02-05T03:29:44.507Z,-1.39
2023-02-05T03:32:31.802Z,-1.38
2023-02-05T03:35:14.939Z,-1.40
2023-02-05T03:37:57.126Z,-1.44
2023-02-05T03:40:33.435Z,-1.46
2023-02-05T03:43:14.315Z,-1.46
2023-02-05T03:45:54.310Z,-1.44
2023-02-05T03:48:40.480Z,-1.52
2023-02-05T03:51:22.604Z,-1.55
2023-02-05T03:54:04.267Z,-1.56
2023-02-05T03:56:44.395Z,-1.51
2023-02-05T03:59:17.290Z,-1.52
2023-02-05T04:01:48.473Z,-1.58
2023-02-05T04:04:18.206Z,-1.60
2023-02-05T04:06:49.713Z,-1.58
2023-02-05T04:09:19.101Z,-1.56
2023-02-05T04:11:48.321Z,-1.57
2023-02-05T04:14:20.378Z,-1.61
2023-02-05T04:16:50.857Z,-1.60
2023-02-05T04:19:22.365Z,-1.60
2023-02-05T04:21:53.341Z,-1.62
2023-02-05T04:24:23.025Z,-1.58
2023-02-05T04:26:52.336Z,-1.57
2023-02-05T04:29:22.058Z,-1.60
2023-02-05T04:31:55.111Z,-1.62
2023-02-05T04:34:24.177Z,-1.64
2023-02-05T04:36:53.507Z,-1.60
2023-02-05T04:39:24.237Z,-1.61
2023-02-05T04:41:53.290Z,-1.58
2023-02-05T04:44:22.581Z,-1.54
2023-02-05T04:46:51.618Z,-1.55
2023-02-05T04:49:22.099Z,-1.53
2023-02-05T04:51:51.119Z,-1.55
2023-02-05T04:54:20.358Z,-1.51
2023-02-05T04:56:49.400Z,-1.48
2023-02-05T04:59:18.511Z,-1.51
2023-02-05T05:01:47.588Z,-1.43
2023-02-05T05:04:16.641Z,-1.46
2023-02-05T05:06:47.061Z,-1.46
2023-02-05T05:09:16.065Z,-1.42
2023-02-05T05:11:47.213Z,-1.42
2023-02-05T05:14:16.230Z,-1.34
2023-02-05T05:16:45.246Z,-1.36
2023-02-05T05:19:14.381Z,-1.33
2023-02-05T05:21:43.439Z,-1.34
2023-02-05T05:24:13.821Z,-1.31
2023-02-05T05:26:45.060Z,-1.32
2023-02-05T05:29:15.156Z,-1.30
2023-02-05T05:31:44.263Z,-1.26
2023-02-05T05:34:13.348Z,-1.30
2023-02-05T05:36:43.586Z,-1.26
2023-02-05T05:39:31.629Z,-1.23
2023-02-05T05:42:17.997Z,-1.20
2023-02-05T05:44:50.090Z,-1.25
2023-02-05T05:47:19.228Z,-1.19
2023-02-05T05:49:48.400Z,-1.15
2023-02-05T05:52:17.534Z,-1.21
2023-02-05T05:54:47.976Z,-1.22
2023-02-05T05:57:17.013Z,-1.20
2023-02-05T05:59:46.063Z,-1.19
2023-02-05T06:02:15.100Z,-1.18
2023-02-05T06:04:44.189Z,-1.20
2023-02-05T06:07:13.310Z,-1.19
2023-02-05T06:09:42.321Z,-1.20
2023-02-05T06:12:12.746Z,-1.17
2023-02-05T06:14:41.771Z,-1.15
2023-02-05T06:17:10.846Z,-1.19
2023-02-05T06:19:39.893Z,-1.14
2023-02-05T06:22:08.906Z,-1.13
2023-02-05T06:24:38.048Z,-1.14
2023-02-05T06:27:07.057Z,-1.10
2023-02-05T06:29:37.434Z,-1.11
2023-02-05T06:32:06.673Z,-1.08
2023-02-05T06:34:35.788Z,-1.09
2023-02-05T06:37:04.810Z,-1.07
2023-02-05T06:39:33.862Z,-1.01
2023-02-05T06:42:02.928Z,-0.98
2023-02-05T06:44:31.981Z,-1.01
2023-02-05T06:47:02.561Z,-0.99
2023-02-05T06:49:31.596Z,-0.96
2023-02-05T06:52:03.104Z,-0.94
2023-02-05T06:54:33.828Z,-0.93
2023-02-05T06:57:05.396Z,-0.95
2023-02-05T06:59:34.446Z,-0.93
2023-02-05T07:02:04.885Z,-0.95
2023-02-05T07:04:34.008Z,-0.95
2023-02-05T07:07:03.088Z,-0.86
2023-02-05T07:09:32.100Z,-0.92
2023-02-05T07:12:01.227Z,-0.95
2023-02-05T07:14:31.435Z,-0.95
2023-02-05T07:17:00.459Z,-0.92
2023-02-05T07:19:30.941Z,-0.90
2023-02-05T07:22:01.158Z,-0.88
2023-02-05T07:24:30.167Z,-0.89
2023-02-05T07:26:59.296Z,-0.86
2023-02-05T07:29:29.303Z,-0.82
2023-02-05T07:31:58.464Z,-0.85
2023-02-05T07:34:27.553Z,-0.82
2023-02-05T07:36:57.932Z,-0.78
2023-02-05T07:39:27.980Z,-0.80
2023-02-05T07:41:57.118Z,-0.83
2023-02-05T07:44:34.137Z,-0.80
2023-02-05T07:47:03.154Z,-0.74
2023-02-05T07:49:32.200Z,-0.72
2023-02-05T07:52:02.769Z,-0.59
2023-02-05T07:54:32.242Z,-0.51
2023-02-05T07:57:02.587Z,-0.57
2023-02-05T07:59:31.604Z,-0.62
2023-02-05T08:02:00.641Z,-0.63
2023-02-05T08:04:29.791Z,-0.65
2023-02-05T08:06:58.834Z,-0.49
2023-02-05T08:09:29.236Z,-0.55
2023-02-05T08:11:58.373Z,-0.56
2023-02-05T08:14:27.495Z,-0.60
2023-02-05T08:16:56.559Z,-0.61
2023-02-05T08:19:26.348Z,-0.62
2023-02-05T08:21:55.409Z,-0.61
2023-02-05T08:24:24.468Z,-0.57
2023-02-05T08:26:54.931Z,-0.52
2023-02-05T08:29:26.353Z,-0.56
2023-02-05T08:31:55.904Z,-0.41
2023-02-05T08:34:24.967Z,-0.42
2023-02-05T08:36:54.424Z,-0.32
2023-02-05T08:39:26.089Z,-0.37
2023-02-05T08:41:57.190Z,-0.37
2023-02-05T08:44:26.768Z,-0.41
2023-02-05T08:46:55.784Z,-0.44
2023-02-05T08:49:25.043Z,-0.41
2023-02-05T08:51:54.064Z,-0.36
2023-02-05T08:54:23.127Z,-0.17
2023-02-05T08:56:53.047Z,-0.31
2023-02-05T08:59:23.457Z,-0.28
2023-02-05T09:01:52.545Z,-0.24
2023-02-05T09:04:23.340Z,-0.08
2023-02-05T09:06:52.578Z,-0.11
2023-02-05T09:09:21.647Z,-0.18
2023-02-05T09:11:50.923Z,-0.13
2023-02-05T09:14:19.983Z,-0.19
2023-02-05T09:16:50.444Z,-0.17
2023-02-05T09:19:19.548Z,-0.07
2023-02-05T09:21:48.597Z,-0.04
2023-02-05T09:24:17.729Z,-0.04
2023-02-05T09:26:46.744Z,0.01
2023-02-05T09:29:15.808Z,0.20
2023-02-05T09:31:45.001Z,0.07
2023-02-05T09:34:15.940Z,0.25
2023-02-05T09:36:45.032Z,0.29
2023-02-05T09:39:34.571Z,0.35
2023-02-05T09:42:13.384Z,0.29
2023-02-05T09:44:54.088Z,0.27
2023-02-05T09:47:31.163Z,0.37
2023-02-05T09:50:08.686Z,0.59
2023-02-05T09:52:40.104Z,0.59
2023-02-05T09:55:18.367Z,0.71
2023-02-05T09:57:47.656Z,0.60
2023-02-05T10:00:24.883Z,0.82
2023-02-05T10:03:02.885Z,0.95
2023-02-05T10:05:44.441Z,0.73
2023-02-05T10:08:23.740Z,0.72
2023-02-05T10:10:56.292Z,1.09
2023-02-05T10:13:36.478Z,1.41
2023-02-05T10:16:31.507Z,1.25
2023-02-05T10:19:25.472Z,0.85
2023-02-05T10:22:11.959Z,0.83
2023-02-05T10:24:55.175Z,0.87
2023-02-05T10:27:27.817Z,0.98
2023-02-05T10:30:06.433Z,1.01
2023-02-05T10:32:45.778Z,1.04
2023-02-05T10:35:25.658Z,1.05
2023-02-05T10:37:57.950Z,1.12
2023-02-05T10:40:31.600Z,1.18
2023-02-05T10:43:12.783Z,1.31
2023-02-05T10:45:41.858Z,1.67
2023-02-05T10:48:27.000Z,1.34
2023-02-05T10:51:01.317Z,1.58
2023-02-05T10:53:32.928Z,1.55
2023-02-05T10:56:04.325Z,1.71
2023-02-05T10:58:44.699Z,1.78
2023-02-05T11:01:17.380Z,1.88
2023-02-05T11:03:54.500Z,1.59
2023-02-05T11:06:26.940Z,1.54
2023-02-05T11:08:57.737Z,1.53
2023-02-05T11:11:29.408Z,1.62
2023-02-05T11:14:06.863Z,1.59
2023-02-05T11:16:42.984Z,1.70
2023-02-05T11:19:21.335Z,1.64
2023-02-05T11:21:55.125Z,1.61
2023-02-05T11:24:31.545Z,1.63
2023-02-05T11:27:27.900Z,1.45
2023-02-05T11:29:59.888Z,1.54
2023-02-05T11:32:35.921Z,1.59
2023-02-05T11:35:22.928Z,1.75
2023-02-05T11:38:08.351Z,1.86
2023-02-05T11:40:39.640Z,1.92
2023-02-05T11:43:23.998Z,1.67
2023-02-05T11:45:54.779Z,1.81
2023-02-05T11:48:33.214Z,1.83
2023-02-05T11:51:04.551Z,1.78
2023-02-05T11:53:34.301Z,1.66
2023-02-05T11:56:14.360Z,1.75
2023-02-05T11:58:45.227Z,1.82
2023-02-05T12:01:25.140Z,2.08
2023-02-05T12:04:04.610Z,1.94
2023-02-05T12:06:46.985Z,1.89
2023-02-05T12:09:21.068Z,1.91
2023-02-05T12:12:11.187Z,2.10
2023-02-05T12:14:45.179Z,2.09
2023-02-05T12:17:30.611Z,2.07
2023-02-05T12:20:08.964Z,2.17
2023-02-05T12:23:23.478Z,2.23
2023-02-05T12:26:10.575Z,2.21
2023-02-05T12:28:49.183Z,2.22
2023-02-05T12:31:29.399Z,2.34
2023-02-05T12:34:24.574Z,1.99
2023-02-05T12:37:17.195Z,2.01
2023-02-05T12:39:52.128Z,1.97
2023-02-05T12:42:31.184Z,2.15
2023-02-05T12:45:25.725Z,2.13
2023-02-05T12:48:24.619Z,2.33
2023-02-05T12:51:06.267Z,2.44
2023-02-05T12:53:51.921Z,2.22
2023-02-05T12:56:44.866Z,2.44
2023-02-05T12:59:19.373Z,2.48
2023-02-05T13:01:56.596Z,2.19
2023-02-05T13:04:31.033Z,2.54
2023-02-05T13:07:08.475Z,2.46
2023-02-05T13:09:46.402Z,2.31
2023-02-05T13:12:18.819Z,2.41
2023-02-05T13:14:58.549Z,2.34
2023-02-05T13:17:32.056Z,2.43
2023-02-05T13:20:04.046Z,2.64
2023-02-05T13:22:54.416Z,2.80
2023-02-05T13:25:46.916Z,2.58
2023-02-05T13:28:43.086Z,2.56
2023-02-05T13:31:22.186Z,2.55
2023-02-05T13:33:54.741Z,2.62
2023-02-05T13:37:00.254Z,2.45
2023-02-05T13:39:48.395Z,2.38
2023-02-05T13:42:37.128Z,2.71
2023-02-05T13:45:36.317Z,2.84
2023-02-05T13:48:39.527Z,2.91
2023-02-05T13:51:29.172Z,3.11
2023-02-05T13:54:19.865Z,2.79
2023-02-05T13:57:05.179Z,2.98
2023-02-05T13:59:38.614Z,2.99
2023-02-05T14:02:32.407Z,2.92
2023-02-05T14:05:03.081Z,2.76
2023-02-05T14:07:36.346Z,2.82
2023-02-05T14:10:06.828Z,2.81
2023-02-05T14:12:37.936Z,2.76
2023-02-05T14:15:38.680Z,2.68
2023-02-05T14:18:08.823Z,2.62
2023-02-05T14:20:40.530Z,2.53
2023-02-05T14:23:52.955Z,2.51
2023-02-05T14:26:42.091Z,2.70
2023-02-05T14:29:41.254Z,2.78
2023-02-05T14:32:12.962Z,2.70
2023-02-05T14:34:58.947Z,2.57
2023-02-05T14:37:36.188Z,2.55
2023-02-05T14:40:24.301Z,2.65
2023-02-05T14:43:09.498Z,2.75
2023-02-05T14:45:47.333Z,2.73
2023-02-05T14:48:26.321Z,2.79
2023-02-05T14:51:07.631Z,2.83
2023-02-05T14:53:39.627Z,2.79
2023-02-05T14:56:08.920Z,2.74
2023-02-05T14:58:44.248Z,2.72
2023-02-05T15:01:44.151Z,2.65
2023-02-05T15:04:25.803Z,2.61
2023-02-05T15:06:57.753Z,2.64
2023-02-05T15:09:39.230Z,2.53
2023-02-05T15:12:33.744Z,2.62
2023-02-05T15:15:28.089Z,2.53
2023-02-05T15:18:07.298Z,2.56
2023-02-05T15:20:40.422Z,2.55
2023-02-05T15:23:23.440Z,2.60
2023-02-05T15:25:56.836Z,2.57
2023-02-05T15:28:35.180Z,2.56
2023-02-05T15:31:22.746Z,2.56
2023-02-05T15:34:00.992Z,2.56
2023-02-05T15:36:38.424Z,2.57
2023-02-05T15:39:19.718Z,2.58
2023-02-05T15:41:49.717Z,2.52
2023-02-05T15:44:26.955Z,2.51
2023-02-05T15:46:57.426Z,2.50
2023-02-05T15:49:33.136Z,2.57
2023-02-05T15:52:02.998Z,2.41
2023-02-05T15:54:35.718Z,2.35
2023-02-05T15:57:07.661Z,2.35
2023-02-05T15:59:37.126Z,2.26
2023-02-05T16:02:18.662Z,2.42
2023-02-05T16:04:57.255Z,2.45
2023-02-05T16:07:29.538Z,2.43
2023-02-05T16:10:00.775Z,2.41
2023-02-05T16:12:31.693Z,2.38
2023-02-05T16:15:02.745Z,2.38
2023-02-05T16:17:39.191Z,2.31
2023-02-05T16:20:21.058Z,2.35
2023-02-05T16:22:55.526Z,2.37
2023-02-05T16:25:36.351Z,2.35
2023-02-05T16:28:12.235Z,2.31
2023-02-05T16:30:44.623Z,2.29
2023-02-05T16:33:26.056Z,2.19
2023-02-05T16:35:58.482Z,2.20
2023-02-05T16:38:28.296Z,2.11
2023-02-05T16:41:00.729Z,2.14
2023-02-05T16:43:37.554Z,2.06
2023-02-05T16:46:27.057Z,2.06
2023-02-05T16:48:58.728Z,2.02
2023-02-05T16:51:54.394Z,2.05
2023-02-05T16:54:29.106Z,1.97
2023-02-05T16:57:03.889Z,2.01
2023-02-05T16:59:36.972Z,1.93
2023-02-05T17:02:06.923Z,1.96
2023-02-05T17:04:38.951Z,1.96
2023-02-05T17:07:21.224Z,2.02
2023-02-05T17:09:51.452Z,1.96
2023-02-05T17:12:46.346Z,1.91
2023-02-05T17:15:45.659Z,1.94
2023-02-05T17:18:26.974Z,1.89
2023-02-05T17:21:24.462Z,1.90
2023-02-05T17:23:56.923Z,1.89
2023-02-05T17:26:27.246Z,1.82
2023-02-05T17:28:58.872Z,1.85
2023-02-05T17:31:29.461Z,1.87
2023-02-05T17:34:00.180Z,1.93
2023-02-05T17:36:29.379Z,1.90
2023-02-05T17:38:59.930Z,1.88
2023-02-05T17:41:50.627Z,1.80
2023-02-05T17:44:22.773Z,1.86
2023-02-05T17:46:54.016Z,1.88
2023-02-05T17:49:23.214Z,1.82
2023-02-05T17:51:52.348Z,1.83
2023-02-05T17:54:25.556Z,1.80
2023-02-05T17:56:57.407Z,1.86
2023-02-05T17:59:27.504Z,1.77
2023-02-05T18:01:57.711Z,1.73
2023-02-05T18:04:27.394Z,1.74
2023-02-05T18:06:57.617Z,1.76
2023-02-05T18:09:28.319Z,1.62
2023-02-05T18:11:57.544Z,1.67
2023-02-05T18:14:26.607Z,1.71
2023-02-05T18:16:55.674Z,1.70
2023-02-05T18:19:24.722Z,1.65
2023-02-05T18:21:53.743Z,1.72
2023-02-05T18:24:22.856Z,1.72
2023-02-05T18:26:53.485Z,1.67
2023-02-05T18:29:22.616Z,1.68
2023-02-05T18:31:51.708Z,1.66
2023-02-05T18:34:20.768Z,1.67
2023-02-05T18:36:50.183Z,1.68
2023-02-05T18:39:19.532Z,1.71
2023-02-05T18:41:48.660Z,1.70
2023-02-05T18:44:19.448Z,1.67
2023-02-05T18:46:48.650Z,1.56
2023-02-05T18:49:17.833Z,1.60
2023-02-05T18:51:46.847Z,1.60
2023-02-05T18:54:16.054Z,1.63
2023-02-05T18:56:45.396Z,1.59
2023-02-05T18:59:18.323Z,1.59
2023-02-05T19:01:48.947Z,1.61
2023-02-05T19:04:19.513Z,1.62
2023-02-05T19:06:53.588Z,1.60
2023-02-05T19:09:24.508Z,1.58
2023-02-05T19:11:55.241Z,1.50
2023-02-05T19:14:25.828Z,1.48
2023-02-05T19:16:56.631Z,1.47
2023-02-05T19:19:27.266Z,1.43
2023-02-05T19:22:00.044Z,1.41
2023-02-05T19:24:29.966Z,1.37
2023-02-05T19:26:59.944Z,1.31
2023-02-05T19:29:29.781Z,1.31
2023-02-05T19:32:00.253Z,1.27
2023-02-05T19:34:29.497Z,1.18
2023-02-05T19:36:58.643Z,1.14
2023-02-05T19:39:28.049Z,1.05
2023-02-05T19:41:57.132Z,1.04
2023-02-05T19:44:27.295Z,0.99
2023-02-05T19:46:56.538Z,0.88
2023-02-05T19:49:27.203Z,0.82
2023-02-05T19:51:59.412Z,0.86
2023-02-05T19:54:29.452Z,0.89
2023-02-05T19:56:58.660Z,0.91
2023-02-05T19:59:28.070Z,0.93
2023-02-05T20:01:57.384Z,0.96
2023-02-05T20:04:28.622Z,0.98
2023-02-05T20:06:59.944Z,0.98
2023-02-05T20:09:31.796Z,0.93
2023-02-05T20:12:01.050Z,0.98
2023-02-05T20:14:30.586Z,1.01
2023-02-05T20:16:59.657Z,1.05
2023-02-05T20:19:32.415Z,1.06
2023-02-05T20:22:01.530Z,1.08
2023-02-05T20:24:30.627Z,1.01
2023-02-05T20:26:59.793Z,1.01
2023-02-05T20:29:46.415Z,1.01
2023-02-05T20:32:15.443Z,1.09
2023-02-05T20:34:50.173Z,1.13
2023-02-05T20:37:19.810Z,1.12
2023-02-05T20:39:49.591Z,1.09
2023-02-05T20:42:18.986Z,1.11
2023-02-05T20:44:48.697Z,1.11
2023-02-05T20:47:17.851Z,1.13
2023-02-05T20:49:48.379Z,1.14
2023-02-05T20:52:17.596Z,1.07
2023-02-05T20:54:46.676Z,1.03
2023-02-05T20:57:15.957Z,1.06
2023-02-05T20:59:45.245Z,1.06
2023-02-05T21:02:15.528Z,1.01
2023-02-05T21:04:44.865Z,1.06
2023-02-05T21:07:17.829Z,1.06
2023-02-05T21:09:46.857Z,1.01
2023-02-05T21:12:15.961Z,0.97
2023-02-05T21:14:45.092Z,0.90
2023-02-05T21:17:14.680Z,0.91
2023-02-05T21:19:43.848Z,0.83
2023-02-05T21:22:14.226Z,0.87
2023-02-05T21:24:43.286Z,0.79
2023-02-05T21:27:12.313Z,0.73
2023-02-05T21:29:41.651Z,0.62
2023-02-05T21:32:11.048Z,0.62
2023-02-05T21:34:40.735Z,0.62
2023-02-05T21:37:12.429Z,0.56
2023-02-05T21:39:44.186Z,0.49
2023-02-05T21:42:13.531Z,0.36
2023-02-05T21:44:44.107Z,0.28
2023-02-05T21:47:13.155Z,0.15
2023-02-05T21:49:42.306Z,0.11
2023-02-05T21:52:11.445Z,-0.05
2023-02-05T21:54:41.807Z,0.04
2023-02-05T21:57:10.852Z,0.06
2023-02-05T21:59:39.883Z,-0.01
2023-02-05T22:02:10.893Z,-0.01
2023-02-05T22:04:40.090Z,-0.05
2023-02-05T22:07:09.153Z,-0.13
2023-02-05T22:09:38.198Z,-0.21
2023-02-05T22:12:08.981Z,-0.23
2023-02-05T22:14:38.038Z,-0.30
2023-02-05T22:17:07.161Z,-0.37
2023-02-05T22:19:36.242Z,-0.45
2023-02-05T22:22:05.285Z,-0.44
2023-02-05T22:24:34.723Z,-0.50
2023-02-05T22:27:03.951Z,-0.45
2023-02-05T22:29:34.565Z,-0.47
2023-02-05T22:32:03.602Z,-0.43
2023-02-05T22:34:32.667Z,-0.45
2023-02-05T22:37:01.696Z,-0.53
2023-02-05T22:39:30.746Z,-0.61
2023-02-05T22:42:01.313Z,-0.56
2023-02-05T22:44:30.352Z,-0.52
2023-02-05T22:47:00.722Z,-0.60
2023-02-05T22:49:29.767Z,-0.61
2023-02-05T22:51:58.836Z,-0.66
2023-02-05T22:54:27.925Z,-0.64
2023-02-05T22:56:56.976Z,-0.58
2023-02-05T22:59:26.864Z,-0.63
2023-02-05T23:01:55.891Z,-0.69
2023-02-05T23:04:26.310Z,-0.64
2023-02-05T23:06:55.359Z,-0.68
2023-02-05T23:09:24.351Z,-0.66
2023-02-05T23:11:56.387Z,-0.68
2023-02-05T23:14:25.482Z,-0.61
2023-02-05T23:16:56.526Z,-0.67
2023-02-05T23:19:26.997Z,-0.61
2023-02-05T23:21:56.036Z,-0.71
2023-02-05T23:24:25.130Z,-0.69
2023-02-05T23:26:54.615Z,-0.69
2023-02-05T23:29:23.656Z,-0.75
2023-02-05T23:31:52.679Z,-0.78
2023-02-05T23:34:21.727Z,-0.79
2023-02-05T23:36:52.159Z,-0.85
2023-02-05T23:39:21.192Z,-0.85
2023-02-05T23:41:50.283Z,-0.85
2023-02-05T23:44:20.721Z,-0.76
2023-02-05T23:46:50.972Z,-0.73
2023-02-05T23:49:21.925Z,-0.73
2023-02-05T23:51:53.789Z,-0.67
2023-02-05T23:54:24.058Z,-0.68
2023-02-05T23:56:55.636Z,-0.70
2023-02-05T23:59:24.732Z,-0.67
